sensor_id;sensor_type;location;lat;lon;timestamp;pressure;altitude;pressure_sealevel;temperature;humidity
10718;BME280;13513;42.700;23.124;2023-05-19T00:00:43;93160.44;;;11.76;100.00
10718;BME280;13513;42.700;23.124;2023-05-19T00:03:14;93162.70;;;11.68;100.00
10718;BME280;13513;42.700;23.124;2023-05-19T00:05:44;93155.84;;;11.69;100.00
10718;BME280;13513;42.700;23.124;2023-05-19T00:08:19;93154.80;;;11.70;100.00
10718;BME280;13513;42.700;23.124;2023-05-19T00:10:50;93152.95;;;11.71;100.00
10718;BME280;13513;42.700;23.124;2023-05-19T00:13:21;93153.47;;;11.70;100.00
10718;BME280;13513;42.700;23.124;2023-05-19T00:15:53;93154.36;;;11.59;100.00
10718;BME280;13513;42.700;23.124;2023-05-19T00:18:24;93156.66;;;11.70;100.00
10718;BME280;13513;42.700;23.124;2023-05-19T00:20:55;93156.16;;;11.75;100.00
10718;BME280;13513;42.700;23.124;2023-05-19T00:23:26;93152.25;;;11.78;100.00
10718;BME280;13513;42.700;23.124;2023-05-19T00:25:58;93157.17;;;11.69;100.00
10718;BME280;13513;42.700;23.124;2023-05-19T00:28:29;93154.60;;;11.77;100.00
10718;BME280;13513;42.700;23.124;2023-05-19T00:30:59;93153.67;;;11.88;100.00
10718;BME280;13513;42.700;23.124;2023-05-19T00:33:30;93153.18;;;11.91;100.00
10718;BME280;13513;42.700;23.124;2023-05-19T00:36:01;93149.70;;;11.88;100.00
10718;BME280;13513;42.700;23.124;2023-05-19T00:38:34;93152.55;;;11.81;100.00
10718;BME280;13513;42.700;23.124;2023-05-19T00:41:04;93150.48;;;11.86;100.00
10718;BME280;13513;42.700;23.124;2023-05-19T00:43:35;93148.17;;;11.70;100.00
10718;BME280;13513;42.700;23.124;2023-05-19T00:46:06;93145.80;;;11.71;100.00
10718;BME280;13513;42.700;23.124;2023-05-19T00:48:37;93147.13;;;11.71;100.00
10718;BME280;13513;42.700;23.124;2023-05-19T00:51:07;93149.30;;;11.77;100.00
10718;BME280;13513;42.700;23.124;2023-05-19T00:53:37;93144.60;;;11.81;100.00
10718;BME280;13513;42.700;23.124;2023-05-19T00:56:07;93138.81;;;11.84;100.00
10718;BME280;13513;42.700;23.124;2023-05-19T00:58:40;93136.38;;;11.78;100.00
10718;BME280;13513;42.700;23.124;2023-05-19T01:01:10;93131.33;;;11.57;100.00
10718;BME280;13513;42.700;23.124;2023-05-19T01:03:42;93126.01;;;11.55;100.00
10718;BME280;13513;42.700;23.124;2023-05-19T01:06:13;93124.84;;;11.48;100.00
10718;BME280;13513;42.700;23.124;2023-05-19T01:08:44;93118.16;;;11.41;100.00
10718;BME280;13513;42.700;23.124;2023-05-19T01:11:15;93129.11;;;11.28;100.00
10718;BME280;13513;42.700;23.124;2023-05-19T01:13:46;93143.27;;;11.19;100.00
10718;BME280;13513;42.700;23.124;2023-05-19T01:16:24;93138.88;;;11.08;100.00
10718;BME280;13513;42.700;23.124;2023-05-19T01:22:05;93138.22;;;10.99;100.00
10718;BME280;13513;42.700;23.124;2023-05-19T01:24:52;93143.17;;;10.93;100.00
10718;BME280;13513;42.700;23.124;2023-05-19T01:27:38;93140.09;;;10.82;100.00
10718;BME280;13513;42.700;23.124;2023-05-19T01:30:22;93148.95;;;10.73;100.00
10718;BME280;13513;42.700;23.124;2023-05-19T01:32:57;93145.66;;;10.66;100.00
10718;BME280;13513;42.700;23.124;2023-05-19T01:35:28;93143.02;;;10.66;100.00
10718;BME280;13513;42.700;23.124;2023-05-19T01:38:00;93151.42;;;10.63;100.00
10718;BME280;13513;42.700;23.124;2023-05-19T01:40:32;93147.42;;;10.61;100.00
10718;BME280;13513;42.700;23.124;2023-05-19T01:43:02;93150.23;;;10.54;100.00
10718;BME280;13513;42.700;23.124;2023-05-19T01:45:33;93144.70;;;10.56;100.00
10718;BME280;13513;42.700;23.124;2023-05-19T01:48:04;93148.91;;;10.54;100.00
10718;BME280;13513;42.700;23.124;2023-05-19T01:50:35;93141.45;;;10.51;100.00
10718;BME280;13513;42.700;23.124;2023-05-19T01:53:06;93143.31;;;10.51;100.00
10718;BME280;13513;42.700;23.124;2023-05-19T01:55:42;93145.52;;;10.56;100.00
10718;BME280;13513;42.700;23.124;2023-05-19T02:01:13;93151.00;;;10.52;100.00
10718;BME280;13513;42.700;23.124;2023-05-19T02:06:35;93151.98;;;10.49;100.00
10718;BME280;13513;42.700;23.124;2023-05-19T02:09:22;93155.06;;;10.43;100.00
10718;BME280;13513;42.700;23.124;2023-05-19T02:11:55;93158.03;;;10.16;100.00
10718;BME280;13513;42.700;23.124;2023-05-19T02:14:36;93155.55;;;10.10;100.00
10718;BME280;13513;42.700;23.124;2023-05-19T02:17:01;93152.20;;;10.14;100.00
10718;BME280;13513;42.700;23.124;2023-05-19T02:19:35;93156.24;;;10.19;100.00
10718;BME280;13513;42.700;23.124;2023-05-19T02:22:04;93160.12;;;10.14;100.00
10718;BME280;13513;42.700;23.124;2023-05-19T02:24:34;93160.71;;;10.05;100.00
10718;BME280;13513;42.700;23.124;2023-05-19T02:27:06;93160.52;;;10.06;100.00
10718;BME280;13513;42.700;23.124;2023-05-19T02:29:36;93169.88;;;10.14;100.00
10718;BME280;13513;42.700;23.124;2023-05-19T02:32:09;93170.61;;;10.12;100.00
10718;BME280;13513;42.700;23.124;2023-05-19T02:34:39;93180.75;;;10.17;100.00
10718;BME280;13513;42.700;23.124;2023-05-19T02:37:16;93169.87;;;10.28;100.00
10718;BME280;13513;42.700;23.124;2023-05-19T02:39:47;93167.46;;;10.26;100.00
10718;BME280;13513;42.700;23.124;2023-05-19T02:42:17;93174.10;;;10.29;100.00
10718;BME280;13513;42.700;23.124;2023-05-19T02:44:48;93170.27;;;10.20;100.00
10718;BME280;13513;42.700;23.124;2023-05-19T02:47:19;93167.61;;;10.36;100.00
10718;BME280;13513;42.700;23.124;2023-05-19T02:49:50;93166.30;;;10.36;100.00
10718;BME280;13513;42.700;23.124;2023-05-19T02:52:21;93168.16;;;10.36;100.00
10718;BME280;13513;42.700;23.124;2023-05-19T02:54:52;93171.48;;;10.45;100.00
10718;BME280;13513;42.700;23.124;2023-05-19T02:57:22;93172.92;;;10.53;100.00
10718;BME280;13513;42.700;23.124;2023-05-19T02:59:53;93175.44;;;10.62;100.00
10718;BME280;13513;42.700;23.124;2023-05-19T03:02:24;93175.77;;;10.65;100.00
10718;BME280;13513;42.700;23.124;2023-05-19T03:04:57;93172.63;;;10.66;100.00
10718;BME280;13513;42.700;23.124;2023-05-19T03:07:28;93177.98;;;10.71;100.00
10718;BME280;13513;42.700;23.124;2023-05-19T03:09:59;93177.64;;;10.67;100.00
10718;BME280;13513;42.700;23.124;2023-05-19T03:12:32;93182.02;;;10.76;100.00
10718;BME280;13513;42.700;23.124;2023-05-19T03:15:02;93176.22;;;10.76;100.00
10718;BME280;13513;42.700;23.124;2023-05-19T03:17:34;93179.20;;;10.82;100.00
10718;BME280;13513;42.700;23.124;2023-05-19T03:20:06;93190.52;;;10.78;100.00
10718;BME280;13513;42.700;23.124;2023-05-19T03:22:38;93184.05;;;10.71;100.00
10718;BME280;13513;42.700;23.124;2023-05-19T03:25:09;93183.47;;;10.67;100.00
10718;BME280;13513;42.700;23.124;2023-05-19T03:27:39;93185.67;;;10.72;100.00
10718;BME280;13513;42.700;23.124;2023-05-19T03:30:11;93177.64;;;10.67;100.00
10718;BME280;13513;42.700;23.124;2023-05-19T03:32:42;93185.03;;;10.82;100.00
10718;BME280;13513;42.700;23.124;2023-05-19T03:35:14;93187.95;;;10.83;100.00
10718;BME280;13513;42.700;23.124;2023-05-19T03:37:48;93187.84;;;10.94;100.00
10718;BME280;13513;42.700;23.124;2023-05-19T03:40:20;93184.65;;;11.09;100.00
10718;BME280;13513;42.700;23.124;2023-05-19T03:42:51;93182.96;;;11.03;100.00
10718;BME280;13513;42.700;23.124;2023-05-19T03:45:25;93183.73;;;11.01;100.00
10718;BME280;13513;42.700;23.124;2023-05-19T03:47:55;93181.16;;;11.06;100.00
10718;BME280;13513;42.700;23.124;2023-05-19T03:50:26;93185.62;;;11.22;100.00
10718;BME280;13513;42.700;23.124;2023-05-19T03:52:57;93182.97;;;11.41;100.00
10718;BME280;13513;42.700;23.124;2023-05-19T03:55:28;93176.81;;;11.35;100.00
10718;BME280;13513;42.700;23.124;2023-05-19T03:57:59;93181.88;;;11.58;100.00
10718;BME280;13513;42.700;23.124;2023-05-19T04:00:30;93179.05;;;11.62;100.00
10718;BME280;13513;42.700;23.124;2023-05-19T04:03:01;93183.64;;;11.69;100.00
10718;BME280;13513;42.700;23.124;2023-05-19T04:05:32;93176.10;;;11.80;100.00
10718;BME280;13513;42.700;23.124;2023-05-19T04:08:03;93179.59;;;11.83;100.00
10718;BME280;13513;42.700;23.124;2023-05-19T04:10:34;93180.59;;;12.04;100.00
10718;BME280;13513;42.700;23.124;2023-05-19T04:13:05;93179.41;;;11.92;100.00
10718;BME280;13513;42.700;23.124;2023-05-19T04:15:36;93177.25;;;11.89;100.00
10718;BME280;13513;42.700;23.124;2023-05-19T04:18:07;93185.79;;;11.94;100.00
10718;BME280;13513;42.700;23.124;2023-05-19T04:20:38;93189.44;;;11.90;100.00
10718;BME280;13513;42.700;23.124;2023-05-19T04:23:09;93189.50;;;11.93;100.00
10718;BME280;13513;42.700;23.124;2023-05-19T04:25:39;93197.93;;;12.14;100.00
10718;BME280;13513;42.700;23.124;2023-05-19T04:28:12;93194.63;;;12.28;100.00
10718;BME280;13513;42.700;23.124;2023-05-19T04:30:42;93200.13;;;12.49;100.00
10718;BME280;13513;42.700;23.124;2023-05-19T04:33:16;93194.09;;;12.82;100.00
10718;BME280;13513;42.700;23.124;2023-05-19T04:35:47;93186.23;;;13.29;100.00
10718;BME280;13513;42.700;23.124;2023-05-19T04:38:18;93186.52;;;13.81;100.00
10718;BME280;13513;42.700;23.124;2023-05-19T04:57:59;93186.84;;;17.48;90.30
10718;BME280;13513;42.700;23.124;2023-05-19T05:00:29;93192.03;;;18.13;83.68
10718;BME280;13513;42.700;23.124;2023-05-19T05:03:00;93193.13;;;18.75;77.65
10718;BME280;13513;42.700;23.124;2023-05-19T05:05:34;93196.01;;;19.15;71.36
10718;BME280;13513;42.700;23.124;2023-05-19T05:08:04;93200.39;;;19.30;63.23
10718;BME280;13513;42.700;23.124;2023-05-19T05:10:34;93197.86;;;19.52;64.70
10718;BME280;13513;42.700;23.124;2023-05-19T05:13:05;93197.58;;;19.83;63.24
10718;BME280;13513;42.700;23.124;2023-05-19T05:15:39;93197.33;;;20.41;60.12
10718;BME280;13513;42.700;23.124;2023-05-19T05:18:11;93197.69;;;21.00;56.64
10718;BME280;13513;42.700;23.124;2023-05-19T05:20:44;93204.34;;;21.60;54.82
10718;BME280;13513;42.700;23.124;2023-05-19T05:23:18;93204.51;;;21.52;52.78
10718;BME280;13513;42.700;23.124;2023-05-19T05:25:50;93198.91;;;21.95;50.74
10718;BME280;13513;42.700;23.124;2023-05-19T05:28:19;93206.41;;;20.94;51.03
10718;BME280;13513;42.700;23.124;2023-05-19T05:30:49;93199.60;;;20.86;52.62
10718;BME280;13513;42.700;23.124;2023-05-19T05:33:20;93200.28;;;20.67;52.96
10718;BME280;13513;42.700;23.124;2023-05-19T05:35:54;93201.19;;;20.49;53.73
10718;BME280;13513;42.700;23.124;2023-05-19T05:38:25;93203.55;;;19.32;58.46
10718;BME280;13513;42.700;23.124;2023-05-19T05:40:56;93207.56;;;19.50;57.98
10718;BME280;13513;42.700;23.124;2023-05-19T05:43:25;93204.20;;;19.58;57.61
10718;BME280;13513;42.700;23.124;2023-05-19T05:45:57;93212.73;;;19.44;56.81
10718;BME280;13513;42.700;23.124;2023-05-19T05:48:28;93206.67;;;18.65;66.37
10718;BME280;13513;42.700;23.124;2023-05-19T05:50:59;93209.39;;;18.81;62.85
10718;BME280;13513;42.700;23.124;2023-05-19T05:53:31;93207.42;;;19.05;61.61
10718;BME280;13513;42.700;23.124;2023-05-19T05:56:02;93215.41;;;19.28;58.09
10718;BME280;13513;42.700;23.124;2023-05-19T05:58:33;93221.03;;;18.90;59.99
10718;BME280;13513;42.700;23.124;2023-05-19T06:01:03;93226.81;;;19.15;61.11
10718;BME280;13513;42.700;23.124;2023-05-19T06:03:34;93230.40;;;19.29;57.39
10718;BME280;13513;42.700;23.124;2023-05-19T06:06:04;93222.89;;;18.73;58.45
10718;BME280;13513;42.700;23.124;2023-05-19T06:08:35;93221.07;;;18.69;63.18
10718;BME280;13513;42.700;23.124;2023-05-19T06:11:06;93226.02;;;18.96;58.72
10718;BME280;13513;42.700;23.124;2023-05-19T06:13:38;93225.80;;;19.32;57.01
10718;BME280;13513;42.700;23.124;2023-05-19T06:16:12;93227.48;;;19.44;57.99
10718;BME280;13513;42.700;23.124;2023-05-19T06:18:42;93229.88;;;19.46;58.84
10718;BME280;13513;42.700;23.124;2023-05-19T06:21:14;93230.45;;;19.43;59.97
10718;BME280;13513;42.700;23.124;2023-05-19T06:23:44;93229.08;;;20.07;58.95
10718;BME280;13513;42.700;23.124;2023-05-19T06:26:15;93227.63;;;20.55;55.92
10718;BME280;13513;42.700;23.124;2023-05-19T06:28:46;93227.45;;;20.90;51.99
10718;BME280;13513;42.700;23.124;2023-05-19T06:31:17;93227.27;;;21.11;52.63
10718;BME280;13513;42.700;23.124;2023-05-19T06:33:48;93228.72;;;21.52;54.88
10718;BME280;13513;42.700;23.124;2023-05-19T06:36:18;93233.75;;;21.45;52.29
10718;BME280;13513;42.700;23.124;2023-05-19T06:38:48;93228.08;;;21.11;51.76
10718;BME280;13513;42.700;23.124;2023-05-19T06:41:18;93237.28;;;21.54;51.52
10718;BME280;13513;42.700;23.124;2023-05-19T06:43:51;93233.48;;;20.98;55.29
10718;BME280;13513;42.700;23.124;2023-05-19T06:46:28;93240.35;;;19.61;62.55
10718;BME280;13513;42.700;23.124;2023-05-19T06:48:59;93235.20;;;20.10;55.06
10718;BME280;13513;42.700;23.124;2023-05-19T06:51:29;93241.55;;;20.17;57.35
10718;BME280;13513;42.700;23.124;2023-05-19T06:54:00;93245.67;;;20.39;55.50
10718;BME280;13513;42.700;23.124;2023-05-19T06:56:31;93236.23;;;20.95;56.58
10718;BME280;13513;42.700;23.124;2023-05-19T06:59:08;93238.00;;;21.82;54.26
10718;BME280;13513;42.700;23.124;2023-05-19T07:01:39;93238.81;;;22.32;54.89
10718;BME280;13513;42.700;23.124;2023-05-19T07:04:10;93244.83;;;22.88;50.48
10718;BME280;13513;42.700;23.124;2023-05-19T07:06:40;93248.77;;;23.47;47.16
10718;BME280;13513;42.700;23.124;2023-05-19T07:09:12;93245.67;;;22.58;47.50
10718;BME280;13513;42.700;23.124;2023-05-19T07:11:42;93250.03;;;23.12;50.10
10718;BME280;13513;42.700;23.124;2023-05-19T07:14:12;93252.78;;;23.30;49.24
10718;BME280;13513;42.700;23.124;2023-05-19T07:16:43;93255.09;;;23.93;47.09
10718;BME280;13513;42.700;23.124;2023-05-19T07:19:14;93256.42;;;24.73;45.66
10718;BME280;13513;42.700;23.124;2023-05-19T07:21:45;93258.45;;;24.85;42.70
10718;BME280;13513;42.700;23.124;2023-05-19T07:24:16;93258.18;;;24.38;42.94
10718;BME280;13513;42.700;23.124;2023-05-19T07:26:48;93261.98;;;22.53;47.78
10718;BME280;13513;42.700;23.124;2023-05-19T07:29:18;93257.77;;;22.08;50.30
10718;BME280;13513;42.700;23.124;2023-05-19T07:31:48;93256.11;;;21.54;49.56
10718;BME280;13513;42.700;23.124;2023-05-19T07:34:20;93256.22;;;21.38;54.42
10718;BME280;13513;42.700;23.124;2023-05-19T07:36:51;93253.50;;;21.85;52.78
10718;BME280;13513;42.700;23.124;2023-05-19T07:39:21;93254.38;;;21.94;50.89
10718;BME280;13513;42.700;23.124;2023-05-19T07:41:53;93253.28;;;21.26;52.43
10718;BME280;13513;42.700;23.124;2023-05-19T07:44:23;93259.19;;;21.01;52.16
10718;BME280;13513;42.700;23.124;2023-05-19T07:46:55;93245.12;;;21.18;54.77
10718;BME280;13513;42.700;23.124;2023-05-19T07:49:26;93252.69;;;21.05;52.39
10718;BME280;13513;42.700;23.124;2023-05-19T07:51:57;93250.73;;;21.98;52.08
10718;BME280;13513;42.700;23.124;2023-05-19T07:54:28;93247.17;;;22.42;52.16
10718;BME280;13513;42.700;23.124;2023-05-19T07:56:59;93245.71;;;22.86;48.53
10718;BME280;13513;42.700;23.124;2023-05-19T07:59:30;93246.20;;;23.76;48.06
10718;BME280;13513;42.700;23.124;2023-05-19T08:02:01;93250.09;;;23.64;46.60
10718;BME280;13513;42.700;23.124;2023-05-19T08:04:31;93252.41;;;23.51;47.62
10718;BME280;13513;42.700;23.124;2023-05-19T08:07:02;93249.70;;;22.38;47.32
10718;BME280;13513;42.700;23.124;2023-05-19T08:09:33;93244.29;;;23.34;48.83
10718;BME280;13513;42.700;23.124;2023-05-19T08:12:03;93243.19;;;23.43;46.79
10718;BME280;13513;42.700;23.124;2023-05-19T08:14:34;93250.63;;;22.34;50.60
10718;BME280;13513;42.700;23.124;2023-05-19T08:17:05;93253.43;;;21.19;53.96
10718;BME280;13513;42.700;23.124;2023-05-19T08:19:35;93251.00;;;21.31;51.04
10718;BME280;13513;42.700;23.124;2023-05-19T08:22:05;93241.61;;;22.08;50.50
10718;BME280;13513;42.700;23.124;2023-05-19T08:24:36;93246.05;;;22.34;49.17
10718;BME280;13513;42.700;23.124;2023-05-19T08:27:07;93252.83;;;21.79;49.93
10718;BME280;13513;42.700;23.124;2023-05-19T08:29:38;93247.06;;;21.50;56.16
10718;BME280;13513;42.700;23.124;2023-05-19T08:32:09;93250.91;;;20.60;54.29
10718;BME280;13513;42.700;23.124;2023-05-19T08:34:41;93257.42;;;19.97;54.50
10718;BME280;13513;42.700;23.124;2023-05-19T08:37:11;93250.45;;;20.69;54.75
10718;BME280;13513;42.700;23.124;2023-05-19T08:39:42;93246.53;;;20.64;57.57
10718;BME280;13513;42.700;23.124;2023-05-19T08:42:11;93244.48;;;20.72;57.05
10718;BME280;13513;42.700;23.124;2023-05-19T08:44:43;93245.23;;;20.75;57.21
10718;BME280;13513;42.700;23.124;2023-05-19T08:47:15;93260.95;;;21.55;55.23
10718;BME280;13513;42.700;23.124;2023-05-19T08:49:49;93248.67;;;22.48;54.59
10718;BME280;13513;42.700;23.124;2023-05-19T08:57:59;93251.42;;;24.38;47.09
10718;BME280;13513;42.700;23.124;2023-05-19T09:00:30;93238.67;;;26.30;45.66
10718;BME280;13513;42.700;23.124;2023-05-19T09:03:02;93242.83;;;26.79;42.10
10718;BME280;13513;42.700;23.124;2023-05-19T09:05:36;93247.39;;;26.99;39.42
10718;BME280;13513;42.700;23.124;2023-05-19T09:08:07;93246.09;;;25.74;42.09
10718;BME280;13513;42.700;23.124;2023-05-19T09:10:38;93241.05;;;26.89;43.84
10718;BME280;13513;42.700;23.124;2023-05-19T09:13:09;93244.53;;;27.55;38.81
10718;BME280;13513;42.700;23.124;2023-05-19T09:15:43;93237.20;;;26.96;40.27
10718;BME280;13513;42.700;23.124;2023-05-19T09:18:20;93249.08;;;23.54;46.83
10718;BME280;13513;42.700;23.124;2023-05-19T09:20:58;93243.27;;;22.06;48.60
10718;BME280;13513;42.700;23.124;2023-05-19T09:23:26;93228.81;;;21.94;53.83
10718;BME280;13513;42.700;23.124;2023-05-19T09:25:54;93239.55;;;21.14;53.82
10718;BME280;13513;42.700;23.124;2023-05-19T09:28:29;93226.61;;;21.16;58.97
10718;BME280;13513;42.700;23.124;2023-05-19T09:31:07;93229.95;;;20.73;56.00
10718;BME280;13513;42.700;23.124;2023-05-19T09:33:40;93236.33;;;19.61;58.21
10718;BME280;13513;42.700;23.124;2023-05-19T09:36:11;93232.41;;;19.69;61.78
10718;BME280;13513;42.700;23.124;2023-05-19T09:38:44;93237.18;;;20.21;66.26
10718;BME280;13513;42.700;23.124;2023-05-19T09:41:14;93228.23;;;20.90;61.17
10718;BME280;13513;42.700;23.124;2023-05-19T09:43:43;93227.57;;;21.09;57.77
10718;BME280;13513;42.700;23.124;2023-05-19T09:46:14;93229.75;;;20.96;57.62
10718;BME280;13513;42.700;23.124;2023-05-19T09:48:45;93230.83;;;21.09;56.23
10718;BME280;13513;42.700;23.124;2023-05-19T09:51:16;93233.84;;;20.80;57.50
10718;BME280;13513;42.700;23.124;2023-05-19T09:53:48;93237.77;;;20.02;56.13
10718;BME280;13513;42.700;23.124;2023-05-19T09:56:19;93229.08;;;20.23;61.28
10718;BME280;13513;42.700;23.124;2023-05-19T09:58:50;93234.80;;;20.19;57.46
10718;BME280;13513;42.700;23.124;2023-05-19T10:01:21;93232.75;;;20.27;58.15
10718;BME280;13513;42.700;23.124;2023-05-19T10:03:52;93227.97;;;20.11;57.93
10718;BME280;13513;42.700;23.124;2023-05-19T10:06:23;93226.98;;;20.34;57.71
10718;BME280;13513;42.700;23.124;2023-05-19T10:08:54;93223.52;;;20.85;55.91
10718;BME280;13513;42.700;23.124;2023-05-19T10:11:26;93221.66;;;21.10;51.67
10718;BME280;13513;42.700;23.124;2023-05-19T10:13:56;93230.73;;;20.87;55.31
10718;BME280;13513;42.700;23.124;2023-05-19T10:16:27;93227.61;;;20.69;55.61
10718;BME280;13513;42.700;23.124;2023-05-19T10:18:59;93224.76;;;20.52;51.80
10718;BME280;13513;42.700;23.124;2023-05-19T10:21:31;93220.91;;;20.55;52.06
10718;BME280;13513;42.700;23.124;2023-05-19T10:24:02;93217.03;;;20.75;53.31
10718;BME280;13513;42.700;23.124;2023-05-19T10:26:34;93215.29;;;20.68;51.11
10718;BME280;13513;42.700;23.124;2023-05-19T10:29:05;93220.09;;;20.30;54.78
10718;BME280;13513;42.700;23.124;2023-05-19T10:31:37;93218.00;;;20.27;57.47
10718;BME280;13513;42.700;23.124;2023-05-19T10:37:23;93207.14;;;20.46;53.82
10718;BME280;13513;42.700;23.124;2023-05-19T10:39:51;93210.31;;;20.75;54.86
10718;BME280;13513;42.700;23.124;2023-05-19T10:42:28;93208.89;;;20.26;55.35
10718;BME280;13513;42.700;23.124;2023-05-19T10:45:23;93206.61;;;20.46;53.28
10718;BME280;13513;42.700;23.124;2023-05-19T10:47:33;93205.72;;;20.75;52.79
10718;BME280;13513;42.700;23.124;2023-05-19T10:50:05;93206.01;;;21.12;53.47
10718;BME280;13513;42.700;23.124;2023-05-19T10:52:39;93203.81;;;21.03;53.82
10718;BME280;13513;42.700;23.124;2023-05-19T10:55:13;93198.28;;;20.72;52.63
10718;BME280;13513;42.700;23.124;2023-05-19T10:57:55;93194.92;;;20.53;50.25
10718;BME280;13513;42.700;23.124;2023-05-19T11:00:30;93200.41;;;20.73;51.04
10718;BME280;13513;42.700;23.124;2023-05-19T11:03:15;93197.57;;;20.94;51.44
10718;BME280;13513;42.700;23.124;2023-05-19T11:05:49;93203.82;;;20.24;54.01
10718;BME280;13513;42.700;23.124;2023-05-19T11:08:39;93207.03;;;20.10;52.63
10718;BME280;13513;42.700;23.124;2023-05-19T11:10:55;93203.33;;;20.06;51.01
10718;BME280;13513;42.700;23.124;2023-05-19T11:13:27;93194.23;;;20.48;49.93
10718;BME280;13513;42.700;23.124;2023-05-19T11:15:58;93194.05;;;20.69;49.60
10718;BME280;13513;42.700;23.124;2023-05-19T11:18:31;93189.79;;;21.17;48.22
10718;BME280;13513;42.700;23.124;2023-05-19T11:21:03;93186.31;;;21.38;47.03
10718;BME280;13513;42.700;23.124;2023-05-19T11:23:36;93180.33;;;21.30;46.79
10718;BME280;13513;42.700;23.124;2023-05-19T11:26:06;93186.73;;;21.54;48.64
10718;BME280;13513;42.700;23.124;2023-05-19T11:28:37;93181.55;;;21.35;49.07
10718;BME280;13513;42.700;23.124;2023-05-19T11:31:08;93183.01;;;21.19;48.13
10718;BME280;13513;42.700;23.124;2023-05-19T11:33:40;93176.95;;;21.14;47.58
10718;BME280;13513;42.700;23.124;2023-05-19T11:36:11;93177.95;;;21.40;48.48
10718;BME280;13513;42.700;23.124;2023-05-19T11:38:42;93179.33;;;21.48;47.00
10718;BME280;13513;42.700;23.124;2023-05-19T11:41:17;93182.72;;;21.32;45.00
10718;BME280;13513;42.700;23.124;2023-05-19T11:43:50;93179.70;;;20.49;47.76
10718;BME280;13513;42.700;23.124;2023-05-19T11:46:21;93178.55;;;20.28;47.47
10718;BME280;13513;42.700;23.124;2023-05-19T11:48:55;93178.40;;;20.06;50.67
10718;BME280;13513;42.700;23.124;2023-05-19T11:51:26;93176.93;;;20.13;50.30
10718;BME280;13513;42.700;23.124;2023-05-19T11:53:57;93161.38;;;20.78;51.76
10718;BME280;13513;42.700;23.124;2023-05-19T11:56:32;93165.78;;;21.31;47.28
10718;BME280;13513;42.700;23.124;2023-05-19T11:58:59;93166.52;;;22.17;48.54
10718;BME280;13513;42.700;23.124;2023-05-19T12:01:30;93162.88;;;22.41;45.22
10718;BME280;13513;42.700;23.124;2023-05-19T12:04:02;93168.30;;;21.91;46.57
10718;BME280;13513;42.700;23.124;2023-05-19T12:06:33;93167.76;;;21.70;44.18
10718;BME280;13513;42.700;23.124;2023-05-19T12:09:05;93159.47;;;21.47;53.21
10718;BME280;13513;42.700;23.124;2023-05-19T12:11:38;93165.77;;;21.20;46.82
10718;BME280;13513;42.700;23.124;2023-05-19T12:14:09;93164.37;;;21.23;48.50
10718;BME280;13513;42.700;23.124;2023-05-19T12:16:43;93172.61;;;20.28;48.96
10718;BME280;13513;42.700;23.124;2023-05-19T12:19:14;93172.33;;;20.00;49.22
10718;BME280;13513;42.700;23.124;2023-05-19T12:21:45;93166.28;;;19.65;51.87
10718;BME280;13513;42.700;23.124;2023-05-19T12:24:17;93168.12;;;19.51;52.73
10718;BME280;13513;42.700;23.124;2023-05-19T12:26:49;93166.72;;;18.68;60.81
10718;BME280;13513;42.700;23.124;2023-05-19T12:29:20;93175.50;;;17.85;70.71
10718;BME280;13513;42.700;23.124;2023-05-19T12:31:51;93180.99;;;17.46;74.94
10718;BME280;13513;42.700;23.124;2023-05-19T12:34:23;93173.53;;;17.07;76.25
10718;BME280;13513;42.700;23.124;2023-05-19T12:36:54;93180.59;;;16.93;74.07
10718;BME280;13513;42.700;23.124;2023-05-19T12:39:25;93192.95;;;16.79;66.33
10718;BME280;13513;42.700;23.124;2023-05-19T12:42:08;93195.42;;;16.73;68.19
10718;BME280;13513;42.700;23.124;2023-05-19T12:44:43;93197.64;;;16.56;71.84
10718;BME280;13513;42.700;23.124;2023-05-19T12:47:18;93200.48;;;16.16;77.01
10718;BME280;13513;42.700;23.124;2023-05-19T12:50:01;93199.66;;;16.23;75.73
10718;BME280;13513;42.700;23.124;2023-05-19T12:52:40;93204.92;;;16.33;75.36
10718;BME280;13513;42.700;23.124;2023-05-19T12:55:06;93197.43;;;16.40;73.77
10718;BME280;13513;42.700;23.124;2023-05-19T12:57:42;93194.98;;;16.54;72.30
10718;BME280;13513;42.700;23.124;2023-05-19T13:00:19;93196.86;;;16.51;71.21
10718;BME280;13513;42.700;23.124;2023-05-19T13:03:03;93188.36;;;16.44;71.55
10718;BME280;13513;42.700;23.124;2023-05-19T13:05:39;93188.27;;;16.64;69.69
10718;BME280;13513;42.700;23.124;2023-05-19T13:08:17;93188.86;;;16.94;69.48
10718;BME280;13513;42.700;23.124;2023-05-19T13:10:48;93188.22;;;17.10;65.19
10718;BME280;13513;42.700;23.124;2023-05-19T13:13:19;93190.29;;;17.18;63.88
10718;BME280;13513;42.700;23.124;2023-05-19T13:15:49;93181.09;;;17.31;63.29
10718;BME280;13513;42.700;23.124;2023-05-19T13:18:20;93177.23;;;17.47;62.75
10718;BME280;13513;42.700;23.124;2023-05-19T13:20:51;93174.77;;;17.79;60.32
10718;BME280;13513;42.700;23.124;2023-05-19T13:23:22;93173.39;;;17.82;57.67
10718;BME280;13513;42.700;23.124;2023-05-19T13:25:53;93174.11;;;18.13;59.71
10718;BME280;13513;42.700;23.124;2023-05-19T13:28:24;93176.33;;;18.30;59.11
10718;BME280;13513;42.700;23.124;2023-05-19T13:30:54;93177.39;;;18.52;60.12
10718;BME280;13513;42.700;23.124;2023-05-19T13:33:25;93171.37;;;18.81;57.35
10718;BME280;13513;42.700;23.124;2023-05-19T13:35:56;93178.70;;;18.92;58.11
10718;BME280;13513;42.700;23.124;2023-05-19T13:38:27;93172.79;;;18.92;55.14
10718;BME280;13513;42.700;23.124;2023-05-19T13:40:58;93181.94;;;19.07;53.21
10718;BME280;13513;42.700;23.124;2023-05-19T13:43:28;93173.75;;;19.17;54.26